createdAt,value
2023-05-14T00:02:30.409Z,99183.02
2023-05-14T00:05:22.470Z,99180.41
2023-05-14T00:08:14.482Z,99178.88
2023-05-14T00:11:08.903Z,99178.20
2023-05-14T00:14:00.893Z,99176.30
2023-05-14T00:16:52.939Z,99172.13
2023-05-14T00:19:33.670Z,99173.52
2023-05-14T00:22:25.728Z,99173.21
2023-05-14T00:25:17.686Z,99176.05
2023-05-14T00:28:09.658Z,99170.66
2023-05-14T00:31:01.696Z,99167.55
2023-05-14T00:33:53.829Z,99171.27
2023-05-14T00:36:45.806Z,99169.54
2023-05-14T00:39:37.875Z,99168.31
2023-05-14T00:42:29.875Z,99167.99
2023-05-14T00:45:22.201Z,99170.11
2023-05-14T00:48:14.651Z,99173.98
2023-05-14T00:51:07.271Z,99173.66
2023-05-14T00:53:59.557Z,99172.48
2023-05-14T00:56:51.788Z,99168.48
2023-05-14T00:59:43.779Z,99171.45
2023-05-14T01:02:35.843Z,99173.05
2023-05-14T01:05:32.159Z,99171.67
2023-05-14T01:08:47.674Z,99173.63
2023-05-14T01:11:46.395Z,99171.36
2023-05-14T01:14:46.249Z,99172.78
2023-05-14T01:17:43.354Z,99172.81
2023-05-14T01:20:35.971Z,99172.65
2023-05-14T01:23:28.084Z,99169.51
2023-05-14T01:26:20.844Z,99164.84
2023-05-14T01:29:20.594Z,99164.52
2023-05-14T01:32:14.441Z,99166.95
2023-05-14T01:35:09.026Z,99168.20
2023-05-14T01:38:02.770Z,99169.63
2023-05-14T01:40:55.999Z,99171.04
2023-05-14T01:43:48.516Z,99174.02
2023-05-14T01:46:40.632Z,99170.56
2023-05-14T01:49:32.721Z,99172.48
2023-05-14T01:52:24.724Z,99172.67
2023-05-14T01:55:18.319Z,99167.80
2023-05-14T01:58:10.585Z,99165.52
2023-05-14T02:01:02.621Z,99165.18
2023-05-14T02:03:54.691Z,99164.14
2023-05-14T02:06:46.695Z,99163.47
2023-05-14T02:09:40.020Z,99165.23
2023-05-14T02:12:32.047Z,99160.68
2023-05-14T02:15:24.012Z,99164.52
2023-05-14T02:18:16.056Z,99163.13
2023-05-14T02:20:59.517Z,99161.06
2023-05-14T02:23:51.600Z,99161.95
2023-05-14T02:26:43.601Z,99162.64
2023-05-14T02:29:35.583Z,99162.81
2023-05-14T02:32:27.730Z,99156.91
2023-05-14T02:35:20.123Z,99159.72
2023-05-14T02:38:12.232Z,99152.56
2023-05-14T02:40:46.599Z,99152.38
2023-05-14T02:43:38.622Z,99151.70
2023-05-14T02:46:31.521Z,99153.45
2023-05-14T02:49:23.578Z,99152.06
2023-05-14T02:52:15.695Z,99154.34
2023-05-14T02:55:09.201Z,99147.17
2023-05-14T02:58:01.177Z,99140.20
2023-05-14T03:00:53.531Z,99137.24
2023-05-14T03:03:26.024Z,99137.27
2023-05-14T03:06:14.622Z,99140.92
2023-05-14T03:09:07.117Z,99136.76
2023-05-14T03:11:42.107Z,99131.53
2023-05-14T03:14:34.242Z,99128.21
2023-05-14T03:17:26.360Z,99124.89
2023-05-14T03:20:18.416Z,99118.27
2023-05-14T03:23:10.518Z,99116.34
2023-05-14T03:26:03.750Z,99118.62
2023-05-14T03:28:55.952Z,99116.70
2023-05-14T03:31:48.081Z,99118.45
2023-05-14T03:34:22.487Z,99118.98
2023-05-14T03:37:14.491Z,99119.13
2023-05-14T03:40:08.256Z,99119.13
2023-05-14T03:43:00.255Z,99124.17
2023-05-14T03:45:53.115Z,99126.45
2023-05-14T03:48:45.171Z,99123.64
2023-05-14T03:51:37.236Z,99115.25
2023-05-14T03:54:22.555Z,99111.76
2023-05-14T03:57:14.532Z,99114.20
2023-05-14T03:59:56.489Z,99108.41
2023-05-14T04:02:48.591Z,99107.17
2023-05-14T04:05:29.410Z,99107.69
2023-05-14T04:08:21.434Z,99107.83
2023-05-14T04:11:13.387Z,99101.54
2023-05-14T04:14:05.568Z,99107.42
2023-05-14T04:16:58.961Z,99109.52
2023-05-14T04:19:43.470Z,99115.10
2023-05-14T04:22:35.558Z,99113.33
2023-05-14T04:25:27.754Z,99114.88
2023-05-14T04:28:19.813Z,99117.98
2023-05-14T04:31:11.893Z,99111.87
2023-05-14T04:34:03.885Z,99113.77
2023-05-14T04:36:56.002Z,99113.89
2023-05-14T04:39:48.038Z,99107.08
2023-05-14T04:42:40.041Z,99105.97
2023-05-14T04:45:34.332Z,99108.21
2023-05-14T04:48:27.750Z,99108.17
2023-05-14T04:51:19.665Z,99106.21
2023-05-14T04:54:11.754Z,99110.17
2023-05-14T04:57:03.781Z,99112.23
2023-05-14T04:59:55.810Z,99105.86
2023-05-14T05:02:39.389Z,99102.86
2023-05-14T05:05:31.465Z,99104.37
2023-05-14T05:08:23.641Z,99098.85
2023-05-14T05:11:15.647Z,99101.20
2023-05-14T05:14:07.726Z,99096.38
2023-05-14T05:16:50.691Z,99101.00
2023-05-14T05:19:44.276Z,99097.89
2023-05-14T05:22:36.627Z,99095.48
2023-05-14T05:25:28.868Z,99091.27
2023-05-14T05:28:20.858Z,99089.29
2023-05-14T05:31:12.993Z,99084.34
2023-05-14T05:34:05.977Z,99081.67
2023-05-14T05:36:57.927Z,99077.44
2023-05-14T05:39:49.892Z,99075.62
2023-05-14T05:42:41.854Z,99080.60
2023-05-14T05:45:33.981Z,99080.23
2023-05-14T05:48:25.882Z,99077.98
2023-05-14T05:51:17.864Z,99085.70
2023-05-14T05:54:09.814Z,99084.60
2023-05-14T05:56:44.348Z,99079.27
2023-05-14T05:59:26.321Z,99077.32
2023-05-14T06:02:18.354Z,99079.63
2023-05-14T06:05:11.808Z,99075.52
2023-05-14T06:08:04.672Z,99074.20
2023-05-14T06:10:49.884Z,99078.61
2023-05-14T06:13:31.831Z,99080.87
2023-05-14T06:16:23.903Z,99079.99
2023-05-14T06:19:16.038Z,99074.45
2023-05-14T06:22:08.410Z,99066.09
2023-05-14T06:25:00.331Z,99061.93
2023-05-14T06:27:52.285Z,99061.66
2023-05-14T06:30:44.273Z,99059.57
2023-05-14T06:33:36.270Z,99054.67
2023-05-14T06:36:18.390Z,99053.59
2023-05-14T06:39:10.883Z,99055.50
2023-05-14T06:42:02.900Z,99048.59
2023-05-14T06:44:54.935Z,99042.66
2023-05-14T06:47:46.942Z,99035.45
2023-05-14T06:50:27.793Z,99038.16
2023-05-14T06:53:02.217Z,99031.42
2023-05-14T06:55:54.335Z,99034.66
2023-05-14T06:58:42.738Z,99039.77
2023-05-14T07:01:34.740Z,99037.76
2023-05-14T07:04:26.717Z,99035.05
2023-05-14T07:07:21.083Z,99033.76
2023-05-14T07:10:13.282Z,99031.30
2023-05-14T07:13:03.248Z,99025.59
2023-05-14T07:15:56.025Z,99027.41
2023-05-14T07:18:31.138Z,99023.45
2023-05-14T07:21:23.256Z,99028.20
2023-05-14T07:24:15.302Z,99032.23
2023-05-14T07:27:08.563Z,99026.35
2023-05-14T07:30:00.556Z,99034.27
2023-05-14T07:32:52.822Z,99036.72
2023-05-14T07:35:44.832Z,99037.23
2023-05-14T07:38:36.958Z,99035.87
2023-05-14T07:41:26.233Z,99043.08
2023-05-14T07:44:18.331Z,99046.84
2023-05-14T07:47:10.740Z,99048.57
2023-05-14T07:50:03.419Z,99049.29
2023-05-14T07:52:55.475Z,99050.95
2023-05-14T07:55:49.532Z,99047.39
2023-05-14T07:58:42.138Z,99043.30
2023-05-14T08:01:19.389Z,99031.18
2023-05-14T08:04:11.865Z,99027.64
2023-05-14T08:07:04.011Z,99026.04
2023-05-14T08:09:56.017Z,99016.20
2023-05-14T08:12:48.015Z,99007.43
2023-05-14T08:15:39.976Z,99011.04
2023-05-14T08:18:32.104Z,99004.88
2023-05-14T08:21:24.116Z,99004.98
2023-05-14T08:24:16.206Z,99002.85
2023-05-14T08:27:08.380Z,99001.61
2023-05-14T08:30:00.410Z,98992.26
2023-05-14T08:32:52.851Z,98989.98
2023-05-14T08:35:27.876Z,98989.14
2023-05-14T08:37:59.840Z,98981.80
2023-05-14T08:40:57.725Z,98976.09
2023-05-14T08:43:58.064Z,98968.43
2023-05-14T08:46:52.921Z,98969.59
2023-05-14T08:49:47.468Z,98967.65
2023-05-14T08:52:40.504Z,98968.87
2023-05-14T08:55:33.377Z,98965.10
2023-05-14T08:58:26.687Z,98963.15
2023-05-14T09:01:19.921Z,98962.54
2023-05-14T09:04:12.681Z,98962.08
2023-05-14T09:06:49.831Z,98961.40
2023-05-14T09:09:42.070Z,98957.31
2023-05-14T09:12:34.104Z,98956.83
2023-05-14T09:15:28.934Z,98955.58
2023-05-14T09:18:21.352Z,98954.27
2023-05-14T09:21:02.713Z,98949.27
2023-05-14T09:23:59.656Z,98954.77
2023-05-14T09:26:54.258Z,98953.90
2023-05-14T09:29:46.246Z,98952.17
2023-05-14T09:32:19.083Z,98944.68
2023-05-14T09:35:17.595Z,98946.86
2023-05-14T09:38:10.327Z,98939.95
2023-05-14T09:41:02.544Z,98941.61
2023-05-14T09:43:56.833Z,98948.72
2023-05-14T09:46:50.000Z,98946.36
2023-05-14T09:49:42.399Z,98947.36
2023-05-14T09:52:34.382Z,98942.27
2023-05-14T09:55:17.696Z,98939.23
2023-05-14T09:58:09.816Z,98924.64
2023-05-14T10:01:04.237Z,98917.45
2023-05-14T10:03:58.620Z,98914.67
2023-05-14T10:06:54.277Z,98913.14
2023-05-14T10:09:47.481Z,98909.07
2023-05-14T10:12:41.753Z,98904.09
2023-05-14T10:15:38.705Z,98897.98
2023-05-14T10:18:37.561Z,98890.79
2023-05-14T10:21:35.015Z,98884.45
2023-05-14T10:24:27.863Z,98875.59
2023-05-14T10:27:09.327Z,98871.19
2023-05-14T10:30:01.587Z,98861.96
2023-05-14T10:33:14.375Z,98862.64
2023-05-14T10:36:08.894Z,98861.76
2023-05-14T10:39:05.080Z,98860.42
2023-05-14T10:41:57.177Z,98859.91
2023-05-14T10:44:55.975Z,98852.18
2023-05-14T10:47:39.251Z,98852.02
2023-05-14T10:50:32.349Z,98841.41
2023-05-14T10:53:34.258Z,98841.28
2023-05-14T10:56:16.246Z,98835.08
2023-05-14T10:59:09.142Z,98834.24
2023-05-14T11:02:01.120Z,98829.31
2023-05-14T11:05:03.565Z,98830.84
2023-05-14T11:07:40.171Z,98826.73
2023-05-14T11:10:32.266Z,98824.80
2023-05-14T11:13:24.351Z,98822.05
2023-05-14T11:16:23.367Z,98818.96
2023-05-14T11:19:07.008Z,98818.42
2023-05-14T11:22:01.210Z,98816.38
2023-05-14T11:24:53.509Z,98807.99
2023-05-14T11:27:46.899Z,98800.82
2023-05-14T11:30:39.048Z,98795.83
2023-05-14T11:33:31.396Z,98800.20
2023-05-14T11:36:23.512Z,98807.04
2023-05-14T11:39:21.646Z,98809.09
2023-05-14T11:42:16.737Z,98809.04
2023-05-14T11:45:06.287Z,98803.29
2023-05-14T11:47:58.406Z,98805.04
2023-05-14T11:50:51.440Z,98798.90
2023-05-14T11:53:43.516Z,98800.50
2023-05-14T11:56:35.607Z,98792.79
2023-05-14T11:59:28.927Z,98792.02
2023-05-14T12:02:22.849Z,98790.16
2023-05-14T12:05:16.494Z,98783.65
2023-05-14T12:08:23.368Z,98779.59
2023-05-14T12:11:15.339Z,98777.45
2023-05-14T12:14:15.992Z,98775.79
2023-05-14T12:17:15.030Z,98771.68
2023-05-14T12:20:10.382Z,98760.09
2023-05-14T12:23:02.378Z,98760.73
2023-05-14T12:25:54.552Z,98756.09
2023-05-14T12:28:50.133Z,98753.13
2023-05-14T12:31:48.252Z,98749.02
2023-05-14T12:34:40.714Z,98750.92
2023-05-14T12:37:33.277Z,98743.46
2023-05-14T12:40:25.629Z,98738.84
2023-05-14T12:43:17.900Z,98734.04
2023-05-14T12:46:09.951Z,98728.53
2023-05-14T12:49:01.997Z,98727.31
2023-05-14T12:52:07.789Z,98726.90
2023-05-14T12:55:09.934Z,98722.38
2023-05-14T12:57:42.030Z,98715.75
2023-05-14T13:00:34.037Z,98712.97
2023-05-14T13:03:26.448Z,98704.05
2023-05-14T13:06:18.592Z,98699.30
2023-05-14T13:09:10.597Z,98693.94
2023-05-14T13:12:02.908Z,98693.49
2023-05-14T13:14:44.497Z,98683.42
2023-05-14T13:17:36.922Z,98682.89
2023-05-14T13:20:30.959Z,98683.95
2023-05-14T13:23:22.960Z,98688.58
2023-05-14T13:26:15.339Z,98684.55
2023-05-14T13:28:56.233Z,98685.69
2023-05-14T13:31:48.250Z,98684.00
2023-05-14T13:34:40.254Z,98687.77
2023-05-14T13:37:32.185Z,98677.13
2023-05-14T13:40:24.327Z,98662.09
2023-05-14T13:43:16.973Z,98660.09
2023-05-14T13:46:09.862Z,98653.87
2023-05-14T13:49:02.113Z,98650.52
2023-05-14T13:51:54.270Z,98651.75
2023-05-14T13:54:46.276Z,98645.59
2023-05-14T13:57:39.720Z,98641.87
2023-05-14T14:00:16.147Z,98634.73
2023-05-14T14:03:08.689Z,98626.54
2023-05-14T14:06:00.968Z,98613.52
2023-05-14T14:08:52.994Z,98612.60
2023-05-14T14:11:45.024Z,98612.73
2023-05-14T14:14:36.994Z,98621.65
2023-05-14T14:17:28.998Z,98616.23
2023-05-14T14:20:00.819Z,98606.89
2023-05-14T14:22:52.842Z,98605.35
2023-05-14T14:25:30.394Z,98594.69
2023-05-14T14:28:22.402Z,98588.24
2023-05-14T14:31:14.654Z,98590.11
2023-05-14T14:34:06.673Z,98593.65
2023-05-14T14:36:58.661Z,98589.41
2023-05-14T14:39:32.785Z,98586.48
2023-05-14T14:42:24.780Z,98584.38
2023-05-14T14:45:06.661Z,98577.77
2023-05-14T14:47:44.503Z,98579.48
2023-05-14T14:50:36.603Z,98573.94
2023-05-14T14:53:28.649Z,98563.36
2023-05-14T14:56:21.226Z,98566.00
2023-05-14T14:59:13.218Z,98558.64
2023-05-14T15:02:05.591Z,98552.27
2023-05-14T15:04:58.100Z,98542.00
2023-05-14T15:07:33.272Z,98532.98
2023-05-14T15:10:25.453Z,98531.17
2023-05-14T15:13:17.624Z,98532.09
2023-05-14T15:16:10.130Z,98528.54
2023-05-14T15:19:02.161Z,98526.29
2023-05-14T15:21:37.358Z,98532.20
2023-05-14T15:24:29.398Z,98532.50
2023-05-14T15:27:12.681Z,98533.50
2023-05-14T15:30:06.279Z,98535.67
2023-05-14T15:32:58.329Z,98539.05
2023-05-14T15:35:50.281Z,98538.73
2023-05-14T15:38:42.280Z,98536.71
2023-05-14T15:41:34.423Z,98531.75
2023-05-14T15:44:26.420Z,98524.27
2023-05-14T15:47:18.288Z,98517.23
2023-05-14T15:50:11.719Z,98517.60
2023-05-14T15:53:04.047Z,98513.91
2023-05-14T15:55:56.400Z,98515.16
2023-05-14T15:58:48.449Z,98516.21
2023-05-14T16:01:29.286Z,98512.29
2023-05-14T16:04:21.317Z,98507.83
2023-05-14T16:07:13.390Z,98501.82
2023-05-14T16:10:06.005Z,98492.05
2023-05-14T16:12:57.979Z,98483.30
2023-05-14T16:15:50.042Z,98480.65
2023-05-14T16:18:43.220Z,98476.66
2023-05-14T16:21:35.372Z,98484.29
2023-05-14T16:24:27.448Z,98486.52
2023-05-14T16:27:19.534Z,98483.33
2023-05-14T16:30:12.780Z,98476.84
2023-05-14T16:32:50.200Z,98475.14
2023-05-14T16:35:42.313Z,98477.49
2023-05-14T16:38:35.538Z,98475.27
2023-05-14T16:41:22.616Z,98473.84
2023-05-14T16:44:14.659Z,98478.17
2023-05-14T16:47:07.306Z,98479.58
2023-05-14T16:49:59.275Z,98477.67
2023-05-14T16:52:51.322Z,98474.92
2023-05-14T16:55:43.337Z,98473.33
2023-05-14T16:58:35.367Z,98470.61
2023-05-14T17:01:27.398Z,98468.84
2023-05-14T17:04:16.072Z,98469.20
2023-05-14T17:07:08.474Z,98471.90
2023-05-14T17:10:00.694Z,98465.73
2023-05-14T17:12:35.760Z,98460.52
2023-05-14T17:15:18.165Z,98459.88
2023-05-14T17:18:11.929Z,98459.75
2023-05-14T17:21:05.781Z,98457.15
2023-05-14T17:23:58.094Z,98452.21
2023-05-14T17:26:30.378Z,98450.45
2023-05-14T17:29:22.344Z,98445.11
2023-05-14T17:32:14.339Z,98444.40
2023-05-14T17:35:07.110Z,98443.94
2023-05-14T17:37:42.853Z,98442.50
2023-05-14T17:40:34.997Z,98436.30
2023-05-14T17:43:27.042Z,98436.52
2023-05-14T17:46:19.136Z,98434.05
2023-05-14T17:49:11.784Z,98435.38
2023-05-14T17:52:04.467Z,98427.42
2023-05-14T17:54:56.438Z,98424.02
2023-05-14T17:57:48.563Z,98426.83
2023-05-14T18:00:40.733Z,98436.56
2023-05-14T18:03:32.828Z,98441.12
2023-05-14T18:06:24.889Z,98444.94
2023-05-14T18:09:16.842Z,98459.58
2023-05-14T18:12:10.065Z,98467.05
2023-05-14T18:15:02.060Z,98470.60
2023-05-14T18:17:50.114Z,98475.52
2023-05-14T18:20:42.183Z,98473.81
2023-05-14T18:23:34.177Z,98473.92
2023-05-14T18:26:26.637Z,98481.09
2023-05-14T18:29:01.468Z,98489.89
2023-05-14T18:36:15.351Z,98501.58
2023-05-14T18:39:07.482Z,98501.95
2023-05-14T18:41:59.564Z,98505.48
2023-05-14T18:44:51.496Z,98503.87
2023-05-14T18:47:43.607Z,98500.98
2023-05-14T18:50:18.380Z,98501.88
2023-05-14T18:53:10.500Z,98500.88
2023-05-14T18:56:03.495Z,98506.65
2023-05-14T18:58:56.240Z,98514.10
2023-05-14T19:01:48.329Z,98519.98
2023-05-14T19:04:51.165Z,98511.80
2023-05-14T19:07:43.944Z,98508.67
2023-05-14T19:10:35.974Z,98510.31
2023-05-14T19:13:30.158Z,98514.13
2023-05-14T19:16:22.318Z,98514.46
2023-05-14T19:19:14.946Z,98512.14
2023-05-14T19:22:07.238Z,98512.45
2023-05-14T19:24:59.312Z,98512.86
2023-05-14T19:27:53.570Z,98510.27
2023-05-14T19:30:45.595Z,98513.41
2023-05-14T19:33:37.535Z,98517.48
2023-05-14T19:36:31.472Z,98523.31
2023-05-14T19:39:08.957Z,98529.82
2023-05-14T19:42:00.987Z,98521.04
2023-05-14T19:44:53.046Z,98517.88
2023-05-14T19:47:45.094Z,98524.79
2023-05-14T19:50:37.794Z,98519.02
2023-05-14T19:53:30.599Z,98518.70
2023-05-14T19:56:05.642Z,98519.78
2023-05-14T19:58:57.680Z,98519.13
2023-05-14T20:01:49.725Z,98519.66
2023-05-14T20:04:26.049Z,98515.02
2023-05-14T20:07:03.780Z,98503.69
2023-05-14T20:09:55.782Z,98503.46
2023-05-14T20:12:47.732Z,98502.86
2023-05-14T20:15:22.346Z,98500.01
2023-05-14T20:18:14.487Z,98498.85
2023-05-14T20:20:58.130Z,98497.92
2023-05-14T20:23:50.141Z,98493.91
2023-05-14T20:26:42.165Z,98488.41
2023-05-14T20:29:22.907Z,98482.91
2023-05-14T20:32:15.543Z,98477.74
2023-05-14T20:35:08.945Z,98476.77
2023-05-14T20:38:02.094Z,98477.26
2023-05-14T20:40:36.972Z,98470.01
2023-05-14T20:43:30.263Z,98460.22
2023-05-14T20:46:22.397Z,98440.88
2023-05-14T20:49:14.399Z,98435.46
2023-05-14T20:52:07.021Z,98425.02
2023-05-14T20:55:00.854Z,98415.42
2023-05-14T20:57:53.916Z,98406.67
2023-05-14T21:00:45.912Z,98395.49
2023-05-14T21:03:38.136Z,98383.72
2023-05-14T21:06:30.175Z,98365.65
2023-05-14T21:09:23.678Z,98350.41
2023-05-14T21:12:15.790Z,98339.75
2023-05-14T21:15:09.338Z,98326.36
2023-05-14T21:18:02.612Z,98323.86
2023-05-14T21:20:54.601Z,98310.80
2023-05-14T21:23:46.619Z,98309.47
2023-05-14T21:26:40.353Z,98309.95
2023-05-14T21:29:32.382Z,98306.90
2023-05-14T21:32:24.415Z,98304.55
2023-05-14T21:35:16.784Z,98302.77
2023-05-14T21:38:09.838Z,98311.58
2023-05-14T21:40:44.767Z,98308.41
2023-05-14T21:43:26.919Z,98311.73
2023-05-14T21:46:19.129Z,98305.39
2023-05-14T21:48:54.046Z,98303.27
2023-05-14T21:51:46.673Z,98301.76
2023-05-14T21:54:38.731Z,98296.14
2023-05-14T21:57:34.077Z,98291.61
2023-05-14T22:00:26.600Z,98284.02
2023-05-14T22:03:18.706Z,98284.55
2023-05-14T22:06:10.838Z,98276.58
2023-05-14T22:09:03.036Z,98262.62
2023-05-14T22:11:55.533Z,98248.92
2023-05-14T22:14:47.699Z,98245.09
2023-05-14T22:17:39.934Z,98250.03
2023-05-14T22:20:31.958Z,98248.52
2023-05-14T22:23:23.963Z,98249.80
2023-05-14T22:26:15.977Z,98247.24
2023-05-14T22:29:07.971Z,98237.94
2023-05-14T22:31:59.995Z,98234.79
2023-05-14T22:34:52.542Z,98228.70
2023-05-14T22:37:44.572Z,98222.83
2023-05-14T22:40:36.522Z,98218.05
2023-05-14T22:43:28.470Z,98211.40
2023-05-14T22:46:21.097Z,98209.77
2023-05-14T22:49:13.340Z,98212.81
2023-05-14T22:52:05.798Z,98220.48
2023-05-14T22:54:50.830Z,98221.55
2023-05-14T22:57:42.939Z,98218.52
2023-05-14T23:00:35.047Z,98219.64
2023-05-14T23:03:09.612Z,98214.45
2023-05-14T23:06:01.598Z,98206.39
2023-05-14T23:08:53.852Z,98194.82
2023-05-14T23:11:46.094Z,98182.00
2023-05-14T23:14:38.084Z,98170.44
2023-05-14T23:17:30.239Z,98160.48
2023-05-14T23:20:22.337Z,98157.31
2023-05-14T23:23:14.276Z,98155.42
2023-05-14T23:26:06.735Z,98156.61
2023-05-14T23:28:58.690Z,98149.36
2023-05-14T23:31:50.707Z,98144.90
2023-05-14T23:34:42.819Z,98145.39
2023-05-14T23:37:36.796Z,98134.27
2023-05-14T23:40:28.755Z,98134.10
2023-05-14T23:43:20.747Z,98132.89
2023-05-14T23:46:13.083Z,98132.56
2023-05-14T23:49:05.218Z,98129.61
2023-05-14T23:51:57.592Z,98128.73
2023-05-14T23:54:49.556Z,98128.08
2023-05-14T23:57:42.022Z,98124.41
